Data for 12/11/2007

Time Sea-Level Adjusted Pressure Absolute Pressure Temperature Relative Humidity Dew Point   
(mb) (inHg) (mb) (inHg) (C) (F) (%) (C) (F)
00:05 1023 30.21 853 25.19 -11.5 11.2 84 -13.7 7.3
00:10 1023 30.21 853 25.19 -11.7 10.9 84 -13.9 7
00:15 1023 30.21 853 25.19 -11.9 10.5 85 -13.9 7
00:20 1023 30.21 853 25.19 -11.9 10.6 85 -13.9 7
00:25 1023 30.21 853 25.19 -11.9 10.6 85 -14 6.9
00:30 1023 30.21 853 25.19 -12.2 10 85 -14.2 6.5
00:35 1023 30.21 852 25.16 -12.5 9.5 87 -14.2 6.5
00:40 1023 30.21 852 25.16 -12.4 9.6 88 -14 6.7
00:45 1023 30.21 852 25.16 -12.1 10.2 87 -13.9 7
00:50 1023 30.21 852 25.16 -12.3 9.9 87 -14.1 6.7
00:55 1023 30.21 852 25.16 -12.6 9.3 88 -14.2 6.4
01:00 1023 30.21 852 25.16 -12.5 9.6 87 -14.3 6.3
01:05 1023 30.21 852 25.16 -12.1 10.2 85 -14.2 6.5
01:10 1023 30.21 852 25.16 -12.1 10.2 85 -14.2 6.5
01:15 1023 30.21 852 25.16 -12.1 10.2 84 -14.3 6.3
01:20 1023 30.21 852 25.16 -12.3 9.8 85 -14.4 6.1
01:25 1023 30.21 852 25.16 -12.6 9.4 85 -14.5 5.8
01:30 1023 30.21 852 25.16 -12.5 9.5 85 -14.5 5.9
01:35 1023 30.21 852 25.16 -12.3 9.8 85 -14.3 6.2
01:40 1023 30.21 852 25.16 -12.1 10.3 84 -14.3 6.3
01:45 1023 30.21 852 25.16 -12 10.4 84 -14.2 6.4
01:50 1023 30.21 852 25.16 -12.2 10.1 84 -14.3 6.3
01:55 1023 30.21 852 25.16 -12.4 9.7 84 -14.5 5.9
02:00 1023 30.21 852 25.16 -12.6 9.3 84 -14.7 5.5
02:05 1023 30.21 852 25.16 -12.8 9 87 -14.6 5.7
02:10 1023 30.21 852 25.16 -12.7 9.1 87 -14.5 5.9
02:15 1023 30.21 852 25.16 -12.4 9.7 86 -14.3 6.2
02:20 1023 30.21 852 25.16 -12.2 10 85 -14.3 6.3
02:25 1023 30.21 852 25.16 -12.2 10.1 84 -14.4 6.2
02:30 1023 30.21 852 25.16 -12.1 10.3 83 -14.4 6.1
02:35 1023 30.21 852 25.16 -12 10.4 83 -14.3 6.3
02:40 1023 30.21 853 25.19 -11.9 10.7 83 -14.1 6.5
02:45 1023 30.21 853 25.19 -11.8 10.8 82 -14.2 6.4
02:50 1023 30.21 853 25.19 -11.7 11 82 -14.1 6.5
02:55 1023 30.21 853 25.19 -11.5 11.2 81 -14.1 6.6
03:00 1023 30.21 853 25.19 -11.9 10.7 81 -14.5 5.9
03:05 1024 30.24 853 25.19 -11.9 10.6 78 -14.9 5.2
03:10 1024 30.24 853 25.19 -11.8 10.8 78 -14.9 5.2
03:15 1024 30.24 853 25.19 -12.1 10.3 78 -15.2 4.7
03:20 1024 30.24 853 25.19 -12 10.3 77 -15.3 4.4
03:25 1024 30.24 853 25.19 -12.3 9.9 79 -15.2 4.6
03:30 1024 30.24 853 25.19 -12.6 9.4 79 -15.5 4.2
03:35 1024 30.24 853 25.19 -12.9 8.8 80 -15.6 3.9
03:40 1024 30.24 853 25.19 -13.1 8.5 79 -16 3.2
03:45 1024 30.24 853 25.19 -13.4 7.9 82 -15.9 3.3
03:50 1024 30.24 853 25.19 -13.4 7.8 86 -15.3 4.5
03:55 1024 30.24 853 25.19 -13.2 8.2 85 -15.2 4.6
04:00 1023 30.21 853 25.19 -12.9 8.8 83 -15.3 4.5
04:05 1023 30.21 853 25.19 -12.7 9.1 79 -15.6 3.9
04:10 1023 30.21 853 25.19 -12.9 8.8 79 -15.9 3.5
04:15 1023 30.21 852 25.16 -13.3 8 80 -16.1 3.1
04:20 1023 30.21 852 25.16 -13.5 7.7 80 -16.2 2.8
04:25 1023 30.21 852 25.16 -13.3 8.1 80 -16.1 3
04:30 1023 30.21 852 25.16 -13.1 8.5 81 -15.7 3.8
04:35 1023 30.21 852 25.16 -13 8.7 82 -15.4 4.2
04:40 1023 30.21 852 25.16 -12.8 9 80 -15.5 4.1
04:45 1023 30.21 852 25.16 -12.8 9 80 -15.6 4
04:50 1023 30.21 852 25.16 -12.8 9 82 -15.3 4.4
04:55 1023 30.21 852 25.16 -13 8.7 84 -15.2 4.7
05:00 1023 30.21 852 25.16 -13 8.6 83 -15.3 4.4
05:05 1023 30.21 852 25.16 -13 8.6 83 -15.3 4.4
05:10 1023 30.21 852 25.16 -13.1 8.4 84 -15.3 4.4
05:15 1023 30.21 852 25.16 -13.2 8.3 83 -15.5 4.1
05:20 1023 30.21 852 25.16 -13.2 8.2 84 -15.4 4.3
05:25 1023 30.21 852 25.16 -13.3 8.1 83 -15.6 4
05:30 1023 30.21 852 25.16 -13.3 8 84 -15.6 4
05:35 1023 30.21 852 25.16 -13.4 8 83 -15.7 3.7
05:40 1023 30.21 852 25.16 -13.5 7.8 82 -15.8 3.5
05:45 1023 30.21 852 25.16 -13.6 7.6 84 -15.7 3.8
05:50 1023 30.21 852 25.16 -12.9 8.8 77 -16.1 2.9
05:55 1023 30.21 852 25.16 -12.7 9.1 76 -16.1 2.9
06:00 1023 30.21 852 25.16 -12.8 8.9 76 -16.2 2.9
06:05 1023 30.21 852 25.16 -13 8.6 76 -16.4 2.5
06:10 1023 30.21 852 25.16 -13.4 7.9 79 -16.2 2.8
06:15 1023 30.21 852 25.16 -13.5 7.7 82 -15.9 3.4
06:20 1023 30.21 852 25.16 -13.3 8.1 85 -15.3 4.5
06:25 1023 30.21 852 25.16 -12.8 9 79 -15.7 3.8
06:30 1023 30.21 852 25.16 -13 8.6 79 -15.8 3.5
06:35 1023 30.21 852 25.16 -13.5 7.7 84 -15.6 3.9
06:40 1023 30.21 852 25.16 -13.6 7.6 82 -16 3.1
06:45 1023 30.21 852 25.16 -13.4 8 80 -16.1 3
06:50 1023 30.21 852 25.16 -13.3 8.1 78 -16.3 2.6
06:55 1023 30.21 852 25.16 -13.3 8 80 -16 3.1
07:00 1023 30.21 852 25.16 -13.2 8.3 81 -15.8 3.5
07:05 1023 30.21 852 25.16 -13 8.7 81 -15.6 4
07:10 1023 30.21 852 25.16 -12.9 8.9 81 -15.4 4.2
07:15 1023 30.21 852 25.16 -12.9 8.8 81 -15.4 4.2
07:20 1023 30.21 852 25.16 -13.1 8.5 83 -15.5 4.2
07:25 1023 30.21 852 25.16 -13.3 8 84 -15.4 4.2
07:30 1023 30.21 852 25.16 -13.5 7.6 86 -15.4 4.3
07:35 1023 30.21 852 25.16 -13.2 8.2 82 -15.6 3.9
07:40 1023 30.21 852 25.16 -12.8 8.9 79 -15.8 3.5
07:45 1023 30.21 852 25.16 -13 8.6 78 -16.1 2.9
07:50 1023 30.21 852 25.16 -13.4 7.8 77 -16.6 2.1
07:55 1023 30.21 852 25.16 -13.4 7.9 79 -16.3 2.7
08:00 1023 30.21 852 25.16 -13 8.7 78 -16 3.2
08:05 1023 30.21 852 25.16 -12.9 8.7 80 -15.7 3.8
08:10 1023 30.21 852 25.16 -12.7 9.2 81 -15.3 4.5
08:15 1023 30.21 852 25.16 -12.5 9.5 80 -15.3 4.5
08:20 1023 30.21 852 25.16 -12.5 9.5 79 -15.4 4.2
08:25 1023 30.21 852 25.16 -12.6 9.4 79 -15.5 4
08:30 1023 30.21 852 25.16 -12.8 9 79 -15.6 3.9
08:35 1023 30.21 852 25.16 -13 8.7 80 -15.8 3.6
08:40 1023 30.21 852 25.16 -12.9 8.9 79 -15.8 3.6
08:45 1023 30.21 852 25.16 -12.6 9.4 77 -15.7 3.7
08:50 1023 30.21 852 25.16 -12.2 10.1 76 -15.6 4
08:55 1023 30.21 852 25.16 -11.9 10.5 75 -15.6 4
09:00 1023 30.21 852 25.16 -11.7 10.9 74 -15.4 4.3
09:05 1023 30.21 852 25.16 -11.5 11.2 73 -15.5 4.2
09:10 1023 30.21 852 25.16 -11.4 11.5 74 -15.2 4.6
09:15 1023 30.21 852 25.16 -11.2 11.9 74 -15 5
09:20 1023 30.21 852 25.16 -10.9 12.3 72 -15 5
09:25 1023 30.21 852 25.16 -10.6 12.8 72 -14.8 5.3
09:30 1023 30.21 852 25.16 -10.8 12.6 72 -14.9 5.2
09:35 1023 30.21 852 25.16 -10.6 12.9 70 -15 5
09:40 1023 30.21 852 25.16 -10.1 13.9 67 -15 5
09:45 1023 30.21 852 25.16 -9.7 14.6 67 -14.7 5.5
09:50 1023 30.21 852 25.16 -9.2 15.4 65 -14.7 5.5
09:55 1023 30.21 852 25.16 -8.5 16.8 62 -14.6 5.8
10:00 1023 30.21 852 25.16 -8.8 16.2 62 -14.9 5.2
10:05 1023 30.21 852 25.16 -9 15.9 60 -15.5 4.2
10:10 1023 30.21 852 25.16 -9.1 15.6 60 -15.6 4
10:15 1023 30.21 852 25.16 -8.8 16.1 60 -15.3 4.5
10:20 1023 30.21 852 25.16 -8.6 16.6 58 -15.4 4.3
10:25 1023 30.21 852 25.16 -8.4 16.8 59 -15.2 4.7
10:30 1023 30.21 852 25.16 -8.2 17.3 58 -15.1 4.8
10:35 1023 30.21 852 25.16 -8.2 17.3 57 -15.1 4.7
10:40 1023 30.21 852 25.16 -7.7 18.1 56 -15 4.9
10:45 1023 30.21 852 25.16 -7.3 18.8 55 -14.8 5.4
10:50 1023 30.21 852 25.16 -6.9 19.6 54 -14.7 5.5
10:55 1023 30.21 852 25.16 -6.8 19.7 55 -14.5 5.9
11:00 1023 30.21 852 25.16 -6.8 19.8 53 -15 5.1
11:05 1023 30.21 852 25.16 -6.4 20.4 52 -14.7 5.5
11:10 1023 30.21 852 25.16 -6.4 20.4 52 -14.7 5.6
11:15 1023 30.21 852 25.16 -6.1 21 50 -14.9 5.3
11:20 1023 30.21 852 25.16 -6.1 21 49 -15.1 4.9
11:25 1023 30.21 852 25.16 -6.2 20.8 50 -15 4.9
11:30 1023 30.21 852 25.16 -6.4 20.6 50 -15.1 4.9
11:35 1023 30.21 852 25.16 -6.3 20.6 50 -15.1 4.9
11:40 1023 30.21 852 25.16 -6.2 20.9 51 -14.9 5.3
11:45 1022 30.18 852 25.16 -5.7 21.7 49 -14.9 5.2
11:50 1022 30.18 852 25.16 -6 21.2 49 -15 4.9
11:55 1022 30.18 852 25.16 -6.2 20.9 49 -15.3 4.4
12:00 1022 30.18 852 25.16 -6 21.2 51 -14.7 5.6
12:05 1022 30.18 852 25.16 -5.8 21.6 49 -14.8 5.3
12:10 1022 30.18 851 25.13 -6.1 21 51 -14.7 5.5
12:15 1022 30.18 851 25.13 -6.1 21.1 50 -14.8 5.4
12:20 1022 30.18 851 25.13 -5.8 21.6 49 -14.8 5.3
12:25 1022 30.18 851 25.13 -5.9 21.4 51 -14.5 5.8
12:30 1022 30.18 851 25.13 -5.8 21.5 51 -14.4 6.1
12:35 1022 30.18 851 25.13 -5.6 21.9 51 -14.3 6.3
12:40 1022 30.18 851 25.13 -5.7 21.7 53 -13.8 7.1
12:45 1022 30.18 851 25.13 -5.7 21.7 53 -13.9 7
12:50 1022 30.18 851 25.13 -5.6 21.9 53 -13.8 7.1
12:55 1022 30.18 851 25.13 -4.8 23.3 49 -14 6.9
13:00 1022 30.18 851 25.13 -4.8 23.4 50 -13.7 7.3
13:05 1022 30.18 851 25.13 -5.4 22.2 50 -14.2 6.5
13:10 1022 30.18 851 25.13 -5 23.1 49 -14.1 6.6
13:15 1022 30.18 851 25.13 -4.7 23.6 50 -13.6 7.5
13:20 1021 30.15 851 25.13 -5.2 22.6 51 -13.8 7.2
13:25 1021 30.15 851 25.13 -4.9 23.2 51 -13.5 7.7
13:30 1021 30.15 851 25.13 -5.2 22.6 52 -13.5 7.7
13:35 1021 30.15 851 25.13 -4.7 23.5 49 -14 6.8
13:40 1021 30.15 851 25.13 -4.6 23.7 50 -13.4 7.8
13:45 1021 30.15 851 25.13 -5 22.9 51 -13.6 7.5
13:50 1021 30.15 851 25.13 -4.9 23.2 51 -13.4 7.9
13:55 1021 30.15 851 25.13 -4.8 23.4 50 -13.6 7.5
14:00 1021 30.15 851 25.13 -4.8 23.4 49 -13.9 7
14:05 1021 30.15 850 25.1 -4.4 24.1 48 -13.8 7.2
14:10 1021 30.15 850 25.1 -4.7 23.5 51 -13.5 7.8
14:15 1021 30.15 850 25.1 -4.8 23.4 51 -13.5 7.8
14:20 1021 30.15 850 25.1 -4.7 23.5 49 -13.9 7
14:25 1021 30.15 850 25.1 -5 23 51 -13.6 7.6
14:30 1021 30.15 850 25.1 -4.9 23.1 50 -13.9 7
14:35 1021 30.15 850 25.1 -4.5 23.9 48 -14 6.8
14:40 1021 30.15 850 25.1 -4.4 24 49 -13.6 7.6
14:45 1021 30.15 850 25.1 -4.4 24.1 48 -13.8 7.2
14:50 1021 30.15 850 25.1 -4.9 23.1 52 -13.3 8.1
14:55 1021 30.15 850 25.1 -5.4 22.3 53 -13.4 7.8
15:00 1021 30.15 851 25.13 -5.3 22.4 53 -13.5 7.7
15:05 1021 30.15 851 25.13 -5.2 22.7 52 -13.6 7.6
15:10 1021 30.15 851 25.13 -5.1 22.8 53 -13.2 8.3
15:15 1021 30.15 851 25.13 -5.1 22.9 52 -13.6 7.6
15:20 1021 30.15 851 25.13 -5.2 22.6 52 -13.6 7.5
15:25 1021 30.15 851 25.13 -5.3 22.5 51 -13.8 7.1
15:30 1021 30.15 850 25.1 -5.2 22.7 53 -13.4 7.8
15:35 1021 30.15 850 25.1 -5.3 22.4 52 -13.8 7.2
15:40 1021 30.15 850 25.1 -4.7 23.5 49 -13.8 7.2
15:45 1021 30.15 850 25.1 -5.1 22.9 52 -13.5 7.7
15:50 1021 30.15 851 25.13 -5.6 21.9 54 -13.5 7.7
15:55 1021 30.15 851 25.13 -6.1 21.1 56 -13.5 7.6
16:00 1021 30.15 851 25.13 -6 21.2 56 -13.4 7.9
16:05 1021 30.15 851 25.13 -5.5 22.1 54 -13.5 7.7
16:10 1021 30.15 851 25.13 -5.4 22.3 54 -13.3 8.1
16:15 1021 30.15 851 25.13 -5.3 22.4 54 -13.3 8.1
16:20 1021 30.15 851 25.13 -5.6 21.9 56 -13.1 8.5
16:25 1021 30.15 851 25.13 -6.4 20.5 59 -13.1 8.4
16:30 1021 30.15 850 25.1 -6.9 19.5 61 -13.2 8.2
16:35 1021 30.15 850 25.1 -7.4 18.7 62 -13.4 7.9
16:40 1021 30.15 850 25.1 -7.8 18 64 -13.5 7.7
16:45 1021 30.15 850 25.1 -8 17.6 64 -13.6 7.6
16:50 1021 30.15 850 25.1 -8.2 17.2 66 -13.5 7.7
16:55 1021 30.15 850 25.1 -8.5 16.6 68 -13.4 7.9
17:00 1021 30.15 850 25.1 -8.7 16.4 69 -13.5 7.7
17:05 1021 30.15 850 25.1 -8.8 16.2 67 -13.8 7.2
17:10 1021 30.15 850 25.1 -8.9 16.1 69 -13.5 7.7
17:15 1021 30.15 850 25.1 -9.1 15.6 70 -13.6 7.4
17:20 1021 30.15 850 25.1 -9.2 15.5 70 -13.7 7.3
17:25 1021 30.15 850 25.1 -9.2 15.4 70 -13.7 7.3
17:30 1021 30.15 850 25.1 -9.2 15.4 70 -13.8 7.2
17:35 1021 30.15 850 25.1 -9.2 15.5 70 -13.6 7.5
17:40 1021 30.15 850 25.1 -9.4 15 72 -13.7 7.4
17:45 1021 30.15 850 25.1 -9.7 14.6 73 -13.7 7.3
17:50 1021 30.15 850 25.1 -9.9 14.2 73 -13.9 7
17:55 1021 30.15 850 25.1 -9.9 14.2 73 -13.9 7
18:00 1021 30.15 850 25.1 -9.8 14.4 73 -13.8 7.2
18:05 1021 30.15 850 25.1 -9.7 14.6 73 -13.7 7.3
18:10 1021 30.15 850 25.1 -9.6 14.8 73 -13.6 7.5
18:15 1021 30.15 850 25.1 -9.6 14.8 73 -13.6 7.6
18:20 1021 30.15 850 25.1 -9.6 14.8 73 -13.6 7.5
18:25 1021 30.15 850 25.1 -9.6 14.7 73 -13.5 7.7
18:30 1021 30.15 850 25.1 -9.7 14.5 75 -13.4 7.9
18:35 1021 30.15 850 25.1 -10.1 13.8 77 -13.4 7.9
18:40 1021 30.15 850 25.1 -10.2 13.6 76 -13.7 7.4
18:45 1021 30.15 850 25.1 -10.2 13.7 75 -13.8 7.2
18:50 1021 30.15 850 25.1 -10.3 13.5 75 -13.9 6.9
18:55 1021 30.15 850 25.1 -10.3 13.4 74 -14.1 6.6
19:00 1021 30.15 850 25.1 -10 14 74 -13.8 7.2
19:05 1021 30.15 850 25.1 -9.6 14.7 72 -13.8 7.2
19:10 1021 30.15 850 25.1 -9.3 15.3 71 -13.7 7.3
19:15 1021 30.15 850 25.1 -9.3 15.3 72 -13.4 7.8
19:20 1021 30.15 850 25.1 -9.6 14.6 74 -13.4 7.8
19:25 1021 30.15 850 25.1 -9.9 14.1 76 -13.5 7.8
19:30 1021 30.15 850 25.1 -9.9 14.1 74 -13.7 7.3
19:35 1021 30.15 850 25.1 -9.8 14.3 72 -13.9 7
19:40 1020 30.12 850 25.1 -9.9 14.1 72 -14 6.8
19:45 1020 30.12 850 25.1 -9.8 14.3 73 -13.7 7.3
19:50 1020 30.12 850 25.1 -9.5 15 72 -13.6 7.6
19:55 1021 30.15 850 25.1 -9.8 14.3 74 -13.6 7.5
20:00 1020 30.12 850 25.1 -10.5 13.1 76 -13.9 7
20:05 1020 30.12 850 25.1 -10.8 12.6 78 -13.9 7
20:10 1020 30.12 850 25.1 -10.7 12.8 77 -13.9 7
20:15 1020 30.12 850 25.1 -10.5 13 78 -13.6 7.5
20:20 1020 30.12 850 25.1 -10.5 13.2 79 -13.5 7.7
20:25 1020 30.12 850 25.1 -10.4 13.2 79 -13.5 7.7
20:30 1020 30.12 849 25.07 -10.2 13.7 77 -13.5 7.7
20:35 1020 30.12 849 25.07 -10.3 13.4 77 -13.6 7.5
20:40 1020 30.12 849 25.07 -10.4 13.2 77 -13.8 7.2
20:45 1020 30.12 849 25.07 -10.4 13.3 76 -13.8 7.2
20:50 1020 30.12 849 25.07 -10.4 13.3 77 -13.8 7.2
20:55 1020 30.12 849 25.07 -10.4 13.3 77 -13.7 7.4
21:00 1020 30.12 849 25.07 -10.3 13.4 76 -13.7 7.3
21:05 1020 30.12 849 25.07 -10.3 13.5 77 -13.6 7.6
21:10 1020 30.12 849 25.07 -10.2 13.6 77 -13.5 7.7
21:15 1020 30.12 849 25.07 -10 14 75 -13.7 7.4
21:20 1020 30.12 849 25.07 -10 14.1 76 -13.5 7.7
21:25 1019 30.09 849 25.07 -10.3 13.5 77 -13.6 7.4
21:30 1019 30.09 849 25.07 -10.6 12.9 77 -13.9 7
21:35 1019 30.09 848 25.04 -10.7 12.8 76 -14.1 6.6
21:40 1019 30.09 848 25.04 -10.9 12.4 76 -14.3 6.2
21:45 1019 30.09 848 25.04 -10.8 12.6 78 -14 6.9
21:50 1019 30.09 848 25.04 -10.7 12.8 77 -14 6.8
21:55 1019 30.09 848 25.04 -10.5 13.2 75 -14.1 6.6
22:00 1019 30.09 848 25.04 -10.3 13.4 74 -14.1 6.6
22:05 1019 30.09 848 25.04 -10.1 13.8 74 -14 6.9
22:10 1019 30.09 848 25.04 -9.8 14.3 72 -13.9 6.9
22:15 1019 30.09 848 25.04 -9.5 14.8 72 -13.7 7.3
22:20 1019 30.09 848 25.04 -9.6 14.7 73 -13.7 7.4
22:25 1019 30.09 848 25.04 -9.5 15 73 -13.5 7.7
22:30 1019 30.09 848 25.04 -9.6 14.8 74 -13.4 7.8
22:35 1019 30.09 848 25.04 -9.7 14.5 74 -13.5 7.7
22:40 1019 30.09 848 25.04 -9.7 14.6 74 -13.5 7.7
22:45 1019 30.09 848 25.04 -9.5 14.9 74 -13.3 8
22:50 1019 30.09 848 25.04 -9.5 15 73 -13.5 7.7
22:55 1019 30.09 848 25.04 -9.1 15.7 73 -13.1 8.4
23:00 1019 30.09 848 25.04 -8.9 16 70 -13.3 8
23:05 1019 30.09 848 25.04 -8.6 16.5 70 -13.2 8.2
23:10 1019 30.09 848 25.04 -8.7 16.4 71 -13.1 8.5
23:15 1019 30.09 848 25.04 -8.3 17.1 69 -13.1 8.4
23:20 1019 30.09 848 25.04 -7.8 18 66 -13.1 8.5
23:25 1019 30.09 848 25.04 -7.5 18.6 67 -12.5 9.5
23:30 1019 30.09 848 25.04 -7.8 18 68 -12.7 9.1
23:35 1019 30.09 848 25.04 -8 17.7 68 -12.9 8.9
23:40 1019 30.09 848 25.04 -7.8 17.9 69 -12.6 9.3
23:45 1019 30.09 848 25.04 -8.1 17.4 71 -12.5 9.4
23:50 1019 30.09 848 25.04 -8.3 17.1 72 -12.6 9.4
23:55 1019 30.09 848 25.04 -8.2 17.2 72 -12.5 9.6
24:00 1019 30.09 848 25.04 -8 17.7 70 -12.5 9.5